Historyczne dane pomiarowe

Dodano dane terminowe – wersja testowa.

Dane z okresu 1951-2019

Wersja bazy: 1.34 [2019-03-16, lista zmian], aktualizacja planowana na 2019-04-15

Dane meteo z obszaru Polski uzyskane na podstawie danych udostępnionych przez Instytut Meteorologii i Gospodarki Wodnej – Państwowy Instytut Badawczy.

 

Wybierz Datę:    

       

TemperaturaWilgotnośćWiatrCiśnienieOpadyŚniegCzas trwania zjawisk
 Stacja t tx tn tng RH VA  wxwx mslp ppp RRR   cm mm wxwxwxwxwxwxwx
1956-11-09 -5.0 -1.5 -9.9- 75.0- 2.7 0.7---- 0.0-- 2---------
1956-11-08 -5.3 -1.0 -8.4- 67.8- 2.0 0.0---- 0.0-- 3---------
1956-11-07 -3.8 0.2 -6.5- 69.0- 0.3 0.3---- 0.0-- 3---------
1956-11-06 -0.8 1.2 -2.0- 89.5- 5.3 6.3---- 2.6-- 3---------
1956-11-05 1.0 5.1 -1.5- 89.0- 6.7 5.0---- 2.8------------
1956-11-04 -0.2 3.3 -2.5- 79.0- 0.0 2.0---- 0.0------------
1956-11-03 0.0 3.4 -3.0- 85.5- 2.7 0.0---- 0.0------------
1956-11-02 0.5 4.1 -1.7- 90.3- 4.7 0.3---- 0.0------------
1956-11-01 0.4 1.4 -2.8- 93.0- 8.0 3.0---- 6.9------------
1956-10-31 -4.2 -1.0 -9.6- 72.0- 2.7 2.0---- 0.0------------
1956-10-30 -3.7 -1.3 -5.6- 77.0- 7.3 2.3---- 0.0------------
1956-10-29 -0.2 5.9 -1.6- 97.0- 8.0 2.3---- 1.6------------
1956-10-28 7.0 8.9 5.6- 97.5- 8.0 2.3---- 20.7------------
1956-10-27 8.2 9.4 6.2- 97.0- 8.0 1.7---- 0.0------------
1956-10-26 7.8 11.7 6.5- 98.5- 8.0 0.7---- 1.8------------
1956-10-25 11.0 12.5 7.3- 88.5- 6.0 3.7---- 0.0------------
1956-10-24 10.4 12.7 7.5- 96.0- 7.3 0.7---- 0.0------------
1956-10-23 9.5 10.9 8.5- 84.3- 7.0 2.7---- 0.0------------
1956-10-22 11.6 14.2 9.8- 78.8- 3.3 5.0---- 0.0------------
1956-10-21 12.0 14.6 6.6- 87.0- 4.7 2.7---- 0.0------------
1956-10-20 7.9 10.1 4.3- 95.0- 4.0 1.0---- 0.4------------
1956-10-19 9.4 13.3 6.5- 96.0- 0.0 1.0---- 0.7------------
1956-10-18 8.4 10.1 3.0- 92.3- 5.3 1.3---- 0.3------------
1956-10-17 5.6 12.1 -1.0- 83.8- 8.0 0.7---- 0.0------------
1956-10-16 5.7 10.4 -0.5- 86.5- 2.7 1.0---- 0.0------------
1956-10-15 5.0 11.2 2.5- 85.0- 0.3 1.0---- 0.0------------
1956-10-14 6.6 10.5 4.5- 87.0- 2.0 3.0---- 0.0------------
1956-10-13 9.1 11.0 8.0- 92.0- 8.0 5.7---- 13.4------------
1956-10-12 9.4 11.4 7.6- 89.3- 7.7 5.0---- 0.0------------
1956-10-11 8.4 11.0 4.8- 83.3- 3.7 7.0---- 0.0------------
1956-10-10 4.9 9.3 -0.5- 77.8- 0.3 1.0---- 0.1------------
1956-10-09 3.8 7.7 1.3- 90.5- 2.7 2.0---- 1.4------------
1956-10-08 4.6 6.9 1.5- 90.8- 7.0 1.0---- 2.4------------
1956-10-07 6.6 8.1 4.5- 90.3- 8.0 7.3---- 3.8------------
1956-10-06 7.0 9.3 2.4- 97.3- 8.0 2.3---- 60.0------------
1956-10-05 8.4 14.3 5.8- 91.8- 5.0 2.0---- 0.0------------
1956-10-04 8.8 12.9 2.3- 90.3- 4.0 1.3---- 0.0------------
1956-10-03 13.2 18.5 10.5- 84.8- 4.3 8.0---- 0.1------------
1956-10-02 15.7 24.4 8.0- 80.3- 0.0 4.0---- 0.0------------
1956-10-01 14.0 20.1 3.6- 83.8- 3.3 3.0---- 0.0------------
1956-09-30 11.1 17.6 6.6- 87.8- 2.0 3.3---- 0.0------------
1956-09-29 15.2 20.4 12.2- 83.5- 2.0 8.0---- 0.0------------
1956-09-28 14.8 19.9 9.2- 88.5- 1.7 4.0---- 0.0------------
1956-09-27 13.9 22.9 4.5- 78.3- 0.0 0.7---- 0.0------------
1956-09-26 11.4 21.9 -0.5- 83.5- 0.0 1.0---- 0.0------------
1956-09-25 8.6 17.5 1.4- 79.5- 0.0 1.0---- 0.0------------
1956-09-24 5.9 13.8 -1.3- 73.8- 0.0 0.3---- 0.0------------
1956-09-23 8.3 14.7 2.8- 68.8- 0.0 0.7---- 0.0------------
1956-09-22 10.6 18.1 3.1- 89.5- 0.0 0.3---- 0.0------------
1956-09-21 8.7 18.1 1.2- 82.3- 0.0 0.3---- 0.0------------
1956-09-20 9.0 15.9 0.6- 83.0- 2.7 0.7---- 0.0------------
1956-09-19 7.6 14.6 3.0- 88.3- 1.0 0.3---- 0.0------------
1956-09-18 8.0 13.5 5.0- 83.5- 0.3 2.0---- 0.0------------
1956-09-17 8.0 12.6 5.7- 86.8- 1.0 1.7---- 1.3------------
1956-09-16 9.8 14.7 3.2- 80.8- 6.7 5.7---- 3.0------------
1956-09-15 9.4 15.7 4.2- 81.5- 2.7 2.7---- 0.0------------
1956-09-14 8.7 15.6 5.0- 85.8- 2.7 2.0---- 0.0------------
1956-09-13 9.2 15.1 4.3- 87.0- 2.3 1.3---- 0.0------------
1956-09-12 10.4 15.1 7.2- 88.8- 4.0 1.3---- 6.5------------
1956-09-11 12.0 15.1 7.3- 93.8- 6.0 0.3---- 4.5------------
268.4 ms

 

Źródłem pochodzenia danych jest Instytut Meteorologii i Gospodarki Wodnej – Państwowy Instytut Badawczy. Dane Instytutu Meteorologii i Gospodarki Wodnej – Państwowego Instytutu Badawczego zostały przetworzone.

Dane źródłowe można odnaleźć na stronie https://dane.imgw.pl